Airport View

Enter AWOS ICAO identifier for current METAR.

ex. KFNL

KHDN 111856Z AUTO 07004KT 10SM CLR M04/M09 A3017 RMK AO2 SLP264 T10441089 FZRANO

11 Dec 2019 19:04

Frequency: 119.275

Phone: 970-276-3690

Other Area AWOS: KCAG - KSBS - KC07 - KDWX

TAF KEGE 111739Z 1118/1218 00000KT P6SM FEW120 FM111900 25003KT P6SM SCT080 BKN200 FM120300 11003KT P6SM FEW050 FEW200 FM121000 00000KT P6SM FEW070 FEW120